createdAt,value
2023-01-25T00:02:06.391Z,5.28
2023-01-25T00:04:33.050Z,4.82
2023-01-25T00:06:59.612Z,5.18
2023-01-25T00:09:26.171Z,5.45
2023-01-25T00:11:52.799Z,5.35
2023-01-25T00:14:19.427Z,6.00
2023-01-25T00:16:45.987Z,5.63
2023-01-25T00:19:12.584Z,5.75
2023-01-25T00:21:39.166Z,6.47
2023-01-25T00:24:06.376Z,6.22
2023-01-25T00:26:34.005Z,6.20
2023-01-25T00:29:00.592Z,4.93
2023-01-25T00:31:32.189Z,5.38
2023-01-25T00:34:07.419Z,6.30
2023-01-25T00:36:36.891Z,5.70
2023-01-25T00:39:06.858Z,5.70
2023-01-25T00:41:33.456Z,5.50
2023-01-25T00:44:00.122Z,5.35
2023-01-25T00:46:26.727Z,5.03
2023-01-25T00:48:53.988Z,5.00
2023-01-25T00:51:21.054Z,6.30
2023-01-25T00:53:47.673Z,5.57
2023-01-25T00:56:14.166Z,5.55
2023-01-25T00:58:40.980Z,5.97
2023-01-25T01:01:07.638Z,6.35
2023-01-25T01:03:34.226Z,6.53
2023-01-25T01:06:18.886Z,5.85
2023-01-25T01:08:45.458Z,6.25
2023-01-25T01:11:12.291Z,5.75
2023-01-25T01:13:39.409Z,5.97
2023-01-25T01:16:07.172Z,5.88
2023-01-25T01:18:43.760Z,4.70
2023-01-25T01:21:10.687Z,5.10
2023-01-25T01:23:37.255Z,5.28
2023-01-25T01:26:06.258Z,5.40
2023-01-25T01:28:33.265Z,5.75
2023-01-25T01:31:03.875Z,6.05
2023-01-25T01:33:30.361Z,5.78
2023-01-25T01:35:56.907Z,5.63
2023-01-25T01:38:23.398Z,6.10
2023-01-25T01:40:50.231Z,5.90
2023-01-25T01:43:18.483Z,5.40
2023-01-25T01:45:48.071Z,5.43
2023-01-25T01:48:20.590Z,5.47
2023-01-25T01:50:48.566Z,5.57
2023-01-25T01:53:15.093Z,5.38
2023-01-25T01:55:41.639Z,6.10
2023-01-25T01:58:08.112Z,5.40
2023-01-25T02:00:35.521Z,5.38
2023-01-25T02:03:02.115Z,5.25
2023-01-25T02:05:41.923Z,5.00
2023-01-25T02:08:09.947Z,4.47
2023-01-25T02:10:36.505Z,5.03
2023-01-25T02:13:03.045Z,5.22
2023-01-25T02:15:33.881Z,4.53
2023-01-25T02:18:00.426Z,4.75
2023-01-25T02:20:36.282Z,5.43
2023-01-25T02:23:21.517Z,4.45
2023-01-25T02:25:48.045Z,5.03
2023-01-25T02:28:18.471Z,4.20
2023-01-25T02:30:45.281Z,4.80
2023-01-25T02:33:11.900Z,4.05
2023-01-25T02:35:41.388Z,4.88
2023-01-25T02:38:07.891Z,4.88
2023-01-25T02:40:38.651Z,5.25
2023-01-25T02:43:05.199Z,4.00
2023-01-25T02:45:31.775Z,3.95
2023-01-25T02:47:58.304Z,4.55
2023-01-25T02:50:24.757Z,5.45
2023-01-25T02:52:51.280Z,4.78
2023-01-25T02:55:17.809Z,4.78
2023-01-25T02:57:44.388Z,4.78
2023-01-25T03:00:11.349Z,4.63
2023-01-25T03:02:37.915Z,4.30
2023-01-25T03:05:04.885Z,4.53
2023-01-25T03:07:31.494Z,4.63
2023-01-25T03:09:58.017Z,4.65
2023-01-25T03:12:24.707Z,4.82
2023-01-25T03:14:51.399Z,4.53
2023-01-25T03:17:19.085Z,5.00
2023-01-25T03:19:45.645Z,4.60
2023-01-25T03:22:12.203Z,4.93
2023-01-25T03:24:38.752Z,4.97
2023-01-25T03:27:05.294Z,4.70
2023-01-25T03:29:31.909Z,5.18
2023-01-25T03:31:58.549Z,4.65
2023-01-25T03:34:25.169Z,4.55
2023-01-25T03:36:51.711Z,4.38
2023-01-25T03:39:18.297Z,4.28
2023-01-25T03:41:44.870Z,5.07
2023-01-25T03:44:11.579Z,4.60
2023-01-25T03:46:39.062Z,4.80
2023-01-25T03:49:05.754Z,4.15
2023-01-25T03:51:32.343Z,4.20
2023-01-25T03:53:58.909Z,3.78
2023-01-25T03:56:25.410Z,4.25
2023-01-25T03:58:51.960Z,4.53
2023-01-25T04:01:18.595Z,4.45
2023-01-25T04:03:45.181Z,4.32
2023-01-25T04:06:11.762Z,4.43
2023-01-25T04:08:38.322Z,4.40
2023-01-25T04:11:09.110Z,4.90
2023-01-25T04:13:35.647Z,4.43
2023-01-25T04:16:06.143Z,4.07
2023-01-25T04:18:32.650Z,4.60
2023-01-25T04:20:59.183Z,4.53
2023-01-25T04:23:25.994Z,5.15
2023-01-25T04:25:59.873Z,4.15
2023-01-25T04:28:26.576Z,4.30
2023-01-25T04:30:53.963Z,4.07
2023-01-25T04:33:20.511Z,4.85
2023-01-25T04:35:47.064Z,4.05
2023-01-25T04:38:13.684Z,4.20
2023-01-25T04:40:40.473Z,4.53
2023-01-25T04:43:07.071Z,4.72
2023-01-25T04:45:33.636Z,4.68
2023-01-25T04:48:02.284Z,4.97
2023-01-25T04:50:28.838Z,4.45
2023-01-25T04:52:55.383Z,4.68
2023-01-25T04:55:22.023Z,4.47
2023-01-25T04:57:51.715Z,4.90
2023-01-25T05:00:18.859Z,4.85
2023-01-25T05:02:45.452Z,4.07
2023-01-25T05:05:12.343Z,4.82
2023-01-25T05:07:38.942Z,4.45
2023-01-25T05:10:06.323Z,4.50
2023-01-25T05:12:32.887Z,4.38
2023-01-25T05:14:59.436Z,4.30
2023-01-25T05:17:25.935Z,4.85
2023-01-25T05:19:52.502Z,4.43
2023-01-25T05:22:19.226Z,4.57
2023-01-25T05:24:45.731Z,4.20
2023-01-25T05:27:14.242Z,5.25
2023-01-25T05:29:41.734Z,5.32
2023-01-25T05:32:13.568Z,4.82
2023-01-25T05:34:40.189Z,4.32
2023-01-25T05:37:07.953Z,4.70
2023-01-25T05:39:34.534Z,4.80
2023-01-25T05:42:01.027Z,4.22
2023-01-25T05:44:27.787Z,4.00
2023-01-25T05:46:54.365Z,3.63
2023-01-25T05:49:20.993Z,3.88
2023-01-25T05:51:47.490Z,3.42
2023-01-25T05:54:15.315Z,3.40
2023-01-25T05:56:42.291Z,3.97
2023-01-25T05:59:10.051Z,3.80
2023-01-25T06:01:36.531Z,4.47
2023-01-25T06:04:03.196Z,4.68
2023-01-25T06:06:29.770Z,3.97
2023-01-25T06:08:56.429Z,4.60
2023-01-25T06:11:23.495Z,4.57
2023-01-25T06:13:50.113Z,4.40
2023-01-25T06:16:17.726Z,3.40
2023-01-25T06:18:44.463Z,4.03
2023-01-25T06:21:11.066Z,4.43
2023-01-25T06:23:37.665Z,3.75
2023-01-25T06:26:06.478Z,4.05
2023-01-25T06:28:33.755Z,4.47
2023-01-25T06:31:07.927Z,4.53
2023-01-25T06:33:34.786Z,3.83
2023-01-25T06:36:02.772Z,3.97
2023-01-25T06:38:29.269Z,3.72
2023-01-25T06:41:01.833Z,3.97
2023-01-25T06:43:28.479Z,4.10
2023-01-25T06:45:59.476Z,3.90
2023-01-25T06:48:26.312Z,4.03
2023-01-25T06:51:06.402Z,3.08
2023-01-25T06:53:34.513Z,3.58
2023-01-25T06:56:02.487Z,4.22
2023-01-25T06:58:29.240Z,3.42
2023-01-25T07:01:00.447Z,3.72
2023-01-25T07:03:27.063Z,3.03
2023-01-25T07:05:58.218Z,4.47
2023-01-25T07:08:24.762Z,4.15
2023-01-25T07:10:59.270Z,4.20
2023-01-25T07:13:26.323Z,4.00
2023-01-25T07:16:00.735Z,3.75
2023-01-25T07:18:27.954Z,3.30
2023-01-25T07:20:54.519Z,3.72
2023-01-25T07:23:21.076Z,2.90
2023-01-25T07:25:49.785Z,3.45
2023-01-25T07:28:16.848Z,3.85
2023-01-25T07:30:43.561Z,4.38
2023-01-25T07:33:10.602Z,3.88
2023-01-25T07:35:37.235Z,4.25
2023-01-25T07:38:04.182Z,3.88
2023-01-25T07:40:31.758Z,3.95
2023-01-25T07:42:58.308Z,4.07
2023-01-25T07:48:17.059Z,3.45
2023-01-25T07:50:43.752Z,3.80
2023-01-25T07:53:10.359Z,3.58
2023-01-25T07:55:36.861Z,4.40
2023-01-25T07:58:03.442Z,3.80
2023-01-25T08:00:30.020Z,3.83
2023-01-25T08:02:56.512Z,3.75
2023-01-25T08:05:24.717Z,4.00
2023-01-25T08:07:51.272Z,4.10
2023-01-25T08:10:18.021Z,4.13
2023-01-25T08:12:45.579Z,4.30
2023-01-25T08:15:12.798Z,4.03
2023-01-25T08:17:39.355Z,4.07
2023-01-25T08:20:06.536Z,4.07
2023-01-25T08:22:33.062Z,4.10
2023-01-25T08:24:59.845Z,3.67
2023-01-25T08:27:27.650Z,3.88
2023-01-25T08:29:54.211Z,4.32
2023-01-25T08:32:23.581Z,4.18
2023-01-25T08:34:50.237Z,3.90
2023-01-25T08:37:17.647Z,4.00
2023-01-25T08:39:44.126Z,4.47
2023-01-25T08:42:10.672Z,4.25
2023-01-25T08:44:37.188Z,4.25
2023-01-25T08:47:03.728Z,4.10
2023-01-25T08:49:30.269Z,3.63
2023-01-25T08:51:56.846Z,4.10
2023-01-25T08:54:23.494Z,3.85
2023-01-25T08:56:50.158Z,4.22
2023-01-25T08:59:16.677Z,3.97
2023-01-25T09:01:43.222Z,4.28
2023-01-25T09:04:09.816Z,4.43
2023-01-25T09:06:36.482Z,3.83
2023-01-25T09:09:03.071Z,3.85
2023-01-25T09:11:29.678Z,4.13
2023-01-25T09:13:56.282Z,3.97
2023-01-25T09:16:24.032Z,4.50
2023-01-25T09:18:50.929Z,4.07
2023-01-25T09:21:17.963Z,4.05
2023-01-25T09:23:51.601Z,4.65
2023-01-25T09:26:31.535Z,3.85
2023-01-25T09:28:58.770Z,4.20
2023-01-25T09:31:27.218Z,4.15
2023-01-25T09:33:54.359Z,4.10
2023-01-25T09:36:20.963Z,4.25
2023-01-25T09:38:47.582Z,4.30
2023-01-25T09:41:19.930Z,4.90
2023-01-25T09:44:20.537Z,4.78
2023-01-25T09:46:55.222Z,4.65
2023-01-25T09:49:27.904Z,4.57
2023-01-25T09:52:20.629Z,4.18
2023-01-25T09:54:47.618Z,4.63
2023-01-25T09:57:32.498Z,5.07
2023-01-25T10:00:01.922Z,4.63
2023-01-25T10:02:34.739Z,4.95
2023-01-25T10:05:12.587Z,4.70
2023-01-25T10:07:50.123Z,5.03
2023-01-25T10:10:22.086Z,4.45
2023-01-25T10:12:48.650Z,4.90
2023-01-25T10:15:19.497Z,5.15
2023-01-25T10:17:46.051Z,4.50
2023-01-25T10:20:40.024Z,4.80
2023-01-25T10:23:23.643Z,4.63
2023-01-25T10:25:59.911Z,4.20
2023-01-25T10:28:52.451Z,4.10
2023-01-25T10:31:20.953Z,4.05
2023-01-25T10:33:48.283Z,4.15
2023-01-25T10:36:17.179Z,4.15
2023-01-25T10:38:45.414Z,4.20
2023-01-25T10:41:18.060Z,4.45
2023-01-25T10:43:44.615Z,4.65
2023-01-25T10:46:23.365Z,4.30
2023-01-25T10:48:49.979Z,4.22
2023-01-25T10:51:30.452Z,4.18
2023-01-25T10:54:05.185Z,4.30
2023-01-25T10:56:35.199Z,4.20
2023-01-25T10:59:24.328Z,4.68
2023-01-25T11:01:51.044Z,4.18
2023-01-25T11:04:34.368Z,4.70
2023-01-25T11:07:01.859Z,4.30
2023-01-25T11:09:33.389Z,3.85
2023-01-25T11:12:01.164Z,5.22
2023-01-25T11:14:29.184Z,4.85
2023-01-25T11:16:56.375Z,4.72
2023-01-25T11:19:39.559Z,5.03
2023-01-25T11:22:18.197Z,4.43
2023-01-25T11:24:44.767Z,4.45
2023-01-25T11:27:24.622Z,4.60
2023-01-25T11:30:15.914Z,4.45
2023-01-25T11:32:42.515Z,4.28
2023-01-25T11:35:16.218Z,4.68
2023-01-25T11:38:03.549Z,4.72
2023-01-25T11:40:48.847Z,4.50
2023-01-25T11:43:31.900Z,4.63
2023-01-25T11:46:31.022Z,4.10
2023-01-25T11:49:06.110Z,4.05
2023-01-25T11:51:49.957Z,4.07
2023-01-25T11:55:02.505Z,4.78
2023-01-25T11:57:54.830Z,4.25
2023-01-25T12:00:40.209Z,4.22
2023-01-25T12:03:34.573Z,4.20
2023-01-25T12:06:15.153Z,3.35
2023-01-25T12:08:49.190Z,3.80
2023-01-25T12:11:36.049Z,4.03
2023-01-25T12:14:20.653Z,3.92
2023-01-25T12:16:53.263Z,4.03
2023-01-25T12:19:41.003Z,4.30
2023-01-25T12:22:13.365Z,3.95
2023-01-25T12:24:54.563Z,4.07
2023-01-25T12:27:25.921Z,4.20
2023-01-25T12:29:56.526Z,4.82
2023-01-25T12:33:13.934Z,4.43
2023-01-25T12:35:59.269Z,4.72
2023-01-25T12:38:40.084Z,5.03
2023-01-25T12:41:30.314Z,3.67
2023-01-25T12:44:08.783Z,4.53
2023-01-25T12:46:45.837Z,4.18
2023-01-25T12:49:18.366Z,4.40
2023-01-25T12:51:44.906Z,4.65
2023-01-25T12:54:25.011Z,4.38
2023-01-25T12:57:29.353Z,3.92
2023-01-25T13:00:00.690Z,3.45
2023-01-25T13:02:45.963Z,3.63
2023-01-25T13:05:18.687Z,3.67
2023-01-25T13:07:50.537Z,3.75
2023-01-25T13:10:25.420Z,4.45
2023-01-25T13:12:53.323Z,4.07
2023-01-25T13:15:42.192Z,4.65
2023-01-25T13:18:30.577Z,4.35
2023-01-25T13:21:01.127Z,4.50
2023-01-25T13:23:43.998Z,4.05
2023-01-25T13:26:22.818Z,3.38
2023-01-25T13:28:50.432Z,4.22
2023-01-25T13:31:51.057Z,4.20
2023-01-25T13:34:36.723Z,3.38
2023-01-25T13:37:20.044Z,4.03
2023-01-25T13:39:55.502Z,3.65
2023-01-25T13:44:54.750Z,3.08
2023-01-25T13:47:35.773Z,4.05
2023-01-25T13:50:15.720Z,3.47
2023-01-25T13:52:59.550Z,3.47
2023-01-25T13:55:26.080Z,4.05
2023-01-25T13:57:52.654Z,4.20
2023-01-25T14:00:19.797Z,4.13
2023-01-25T14:02:47.311Z,3.70
2023-01-25T14:05:21.379Z,4.03
2023-01-25T14:07:53.615Z,4.28
2023-01-25T14:10:24.457Z,3.80
2023-01-25T14:12:51.467Z,4.05
2023-01-25T14:15:25.095Z,3.97
2023-01-25T14:18:17.206Z,3.70
2023-01-25T14:20:44.324Z,4.13
2023-01-25T14:23:26.764Z,3.78
2023-01-25T14:25:53.924Z,3.78
2023-01-25T14:28:20.761Z,3.67
2023-01-25T14:30:51.722Z,3.70
2023-01-25T14:33:27.864Z,3.20
2023-01-25T14:36:00.092Z,3.38
2023-01-25T14:38:34.932Z,2.95
2023-01-25T14:41:21.192Z,3.25
2023-01-25T14:43:49.428Z,3.28
2023-01-25T14:46:42.507Z,3.92
2023-01-25T14:49:31.593Z,3.42
2023-01-25T14:52:12.450Z,3.42
2023-01-25T14:54:51.733Z,3.10
2023-01-25T14:57:35.717Z,3.40
2023-01-25T15:00:04.876Z,3.53
2023-01-25T15:02:50.494Z,3.28
2023-01-25T15:05:27.838Z,3.13
2023-01-25T15:08:06.845Z,4.18
2023-01-25T15:10:34.372Z,3.38
2023-01-25T15:13:12.967Z,3.85
2023-01-25T15:15:53.454Z,3.97
2023-01-25T15:18:54.328Z,3.20
2023-01-25T15:21:33.151Z,3.20
2023-01-25T15:24:01.480Z,3.55
2023-01-25T15:26:31.304Z,3.28
2023-01-25T15:28:59.614Z,3.70
2023-01-25T15:31:34.842Z,3.65
2023-01-25T15:34:01.620Z,3.50
2023-01-25T15:36:32.157Z,4.13
2023-01-25T15:38:58.796Z,4.10
2023-01-25T15:41:25.566Z,3.65
2023-01-25T15:43:52.605Z,3.80
2023-01-25T15:46:23.739Z,4.22
2023-01-25T15:48:50.718Z,3.83
2023-01-25T15:51:17.344Z,3.78
2023-01-25T15:53:44.099Z,4.10
2023-01-25T15:56:21.516Z,3.70
2023-01-25T15:58:52.430Z,3.83
2023-01-25T16:01:22.514Z,4.25
2023-01-25T16:03:49.182Z,3.65
2023-01-25T16:06:30.893Z,3.65
2023-01-25T16:08:58.842Z,3.13
2023-01-25T16:11:25.956Z,3.47
2023-01-25T16:13:52.602Z,3.75
2023-01-25T16:16:21.256Z,4.03
2023-01-25T16:18:48.047Z,3.88
2023-01-25T16:21:15.007Z,4.57
2023-01-25T16:23:41.701Z,3.90
2023-01-25T16:26:24.734Z,3.97
2023-01-25T16:28:51.349Z,3.58
2023-01-25T16:31:31.301Z,3.58
2023-01-25T16:33:59.539Z,3.78
2023-01-25T16:36:26.229Z,3.72
2023-01-25T16:38:52.955Z,3.85
2023-01-25T16:41:19.604Z,3.42
2023-01-25T16:43:47.230Z,4.22
2023-01-25T16:46:17.571Z,3.67
2023-01-25T16:48:44.807Z,3.53
2023-01-25T16:51:16.198Z,3.53
2023-01-25T16:53:43.067Z,3.63
2023-01-25T16:56:20.358Z,4.30
2023-01-25T16:58:47.195Z,3.08
2023-01-25T17:01:14.268Z,3.83
2023-01-25T17:03:40.893Z,4.03
2023-01-25T17:06:07.670Z,3.65
2023-01-25T17:08:34.237Z,3.90
2023-01-25T17:11:05.130Z,3.80
2023-01-25T17:13:31.767Z,3.50
2023-01-25T17:15:58.629Z,3.65
2023-01-25T17:18:25.301Z,3.88
2023-01-25T17:21:02.005Z,4.13
2023-01-25T17:23:28.858Z,4.07
2023-01-25T17:25:55.531Z,3.50
2023-01-25T17:28:22.357Z,3.67
2023-01-25T17:30:49.094Z,3.17
2023-01-25T17:33:15.717Z,3.75
2023-01-25T17:35:42.291Z,3.22
2023-01-25T17:38:08.963Z,4.15
2023-01-25T17:40:36.084Z,3.90
2023-01-25T17:43:03.161Z,3.90
2023-01-25T17:45:29.782Z,4.10
2023-01-25T17:47:56.401Z,4.07
2023-01-25T17:50:22.951Z,3.85
2023-01-25T17:52:49.549Z,3.75
2023-01-25T17:55:16.095Z,3.50
2023-01-25T17:57:42.718Z,4.18
2023-01-25T18:00:10.206Z,3.42
2023-01-25T18:02:37.172Z,3.47
2023-01-25T18:05:03.917Z,4.00
2023-01-25T18:07:30.563Z,3.40
2023-01-25T18:09:57.260Z,4.43
2023-01-25T18:12:23.935Z,4.45
2023-01-25T18:14:50.513Z,3.72
2023-01-25T18:17:17.441Z,3.15
2023-01-25T18:19:44.062Z,3.35
2023-01-25T18:22:10.634Z,3.42
2023-01-25T18:24:37.237Z,3.58
2023-01-25T18:27:06.114Z,3.45
2023-01-25T18:29:57.879Z,4.25
2023-01-25T18:32:24.485Z,3.78
2023-01-25T18:34:51.280Z,3.65
2023-01-25T18:37:18.084Z,3.75
2023-01-25T18:39:45.697Z,4.03
2023-01-25T18:42:12.325Z,3.78
2023-01-25T18:44:38.983Z,3.95
2023-01-25T18:47:05.669Z,4.43
2023-01-25T18:49:32.347Z,4.80
2023-01-25T18:52:10.966Z,4.85
2023-01-25T18:54:38.183Z,3.83
2023-01-25T18:57:04.802Z,3.28
2023-01-25T18:59:31.532Z,3.88
2023-01-25T19:01:58.187Z,4.10
2023-01-25T19:04:24.778Z,3.80
2023-01-25T19:06:51.495Z,4.05
2023-01-25T19:09:18.154Z,4.78
2023-01-25T19:11:44.824Z,4.60
2023-01-25T19:14:11.584Z,4.57
2023-01-25T19:16:38.150Z,3.83
2023-01-25T19:19:04.844Z,4.15
2023-01-25T19:21:31.464Z,4.90
2023-01-25T19:23:58.159Z,4.55
2023-01-25T19:26:25.096Z,4.50
2023-01-25T19:28:52.016Z,4.03
2023-01-25T19:31:20.469Z,4.78
2023-01-25T19:33:47.474Z,4.65
2023-01-25T19:36:15.822Z,4.15
2023-01-25T19:38:42.522Z,4.30
2023-01-25T19:41:10.992Z,4.78
2023-01-25T19:43:37.560Z,4.55
2023-01-25T19:46:18.040Z,4.72
2023-01-25T19:48:45.065Z,3.92
2023-01-25T19:51:15.650Z,4.10
2023-01-25T19:53:43.539Z,4.43
2023-01-25T19:56:10.139Z,4.90
2023-01-25T19:58:36.716Z,4.57
2023-01-25T20:01:07.810Z,4.50
2023-01-25T20:03:34.695Z,4.07
2023-01-25T20:06:01.329Z,4.45
2023-01-25T20:08:29.217Z,4.28
2023-01-25T20:11:03.456Z,4.13
2023-01-25T20:13:30.162Z,4.32
2023-01-25T20:15:56.767Z,4.43
2023-01-25T20:18:23.542Z,4.28
2023-01-25T20:20:57.550Z,5.13
2023-01-25T20:23:24.303Z,5.20
2023-01-25T20:26:04.527Z,3.90
2023-01-25T20:28:32.669Z,4.50
2023-01-25T20:30:59.387Z,4.13
2023-01-25T20:33:26.077Z,4.30
2023-01-25T20:35:52.720Z,4.35
2023-01-25T20:38:19.333Z,5.40
2023-01-25T20:40:45.961Z,3.95
2023-01-25T20:43:12.595Z,4.22
2023-01-25T20:45:39.237Z,4.65
2023-01-25T20:48:06.163Z,4.80
2023-01-25T20:50:32.781Z,4.18
2023-01-25T20:52:59.442Z,4.30
2023-01-25T20:55:26.077Z,5.53
2023-01-25T20:57:54.355Z,4.80
2023-01-25T21:00:21.550Z,4.38
2023-01-25T21:02:48.106Z,4.60
2023-01-25T21:05:14.676Z,5.65
2023-01-25T21:07:41.385Z,4.78
2023-01-25T21:10:08.717Z,4.55
2023-01-25T21:12:35.383Z,4.00
2023-01-25T21:15:02.066Z,4.93
2023-01-25T21:17:28.720Z,4.28
2023-01-25T21:19:55.553Z,4.43
2023-01-25T21:22:22.249Z,4.78
2023-01-25T21:24:48.805Z,5.18
2023-01-25T21:27:15.419Z,5.18
2023-01-25T21:29:42.085Z,4.30
2023-01-25T21:32:08.731Z,4.28
2023-01-25T21:34:35.400Z,4.57
2023-01-25T21:37:02.098Z,4.63
2023-01-25T21:39:28.831Z,4.32
2023-01-25T21:41:55.480Z,5.15
2023-01-25T21:44:22.100Z,4.90
2023-01-25T21:47:16.363Z,4.35
2023-01-25T21:49:35.255Z,4.28
2023-01-25T21:52:02.082Z,4.28
2023-01-25T21:54:30.159Z,3.58
2023-01-25T21:56:57.415Z,4.10
2023-01-25T21:59:24.033Z,4.22
2023-01-25T22:01:50.932Z,4.20
2023-01-25T22:04:18.051Z,4.57
2023-01-25T22:06:44.741Z,4.57
2023-01-25T22:09:12.767Z,4.43
2023-01-25T22:11:39.510Z,4.15
2023-01-25T22:14:06.158Z,4.57
2023-01-25T22:16:32.778Z,5.20
2023-01-25T22:18:59.420Z,4.70
2023-01-25T22:21:28.391Z,4.75
2023-01-25T22:23:55.080Z,4.40
2023-01-25T22:26:22.401Z,4.07
2023-01-25T22:28:58.788Z,3.95
2023-01-25T22:31:30.098Z,3.92
2023-01-25T22:33:57.572Z,4.15
2023-01-25T22:36:25.261Z,3.40
2023-01-25T22:38:52.001Z,5.00
2023-01-25T22:41:23.198Z,4.07
2023-01-25T22:43:49.982Z,4.10
2023-01-25T22:46:27.128Z,4.28
2023-01-25T22:48:53.665Z,4.07
2023-01-25T22:51:25.690Z,4.22
2023-01-25T22:53:53.180Z,3.85
2023-01-25T22:56:24.527Z,4.30
2023-01-25T22:58:51.368Z,3.65
2023-01-25T23:01:19.404Z,4.00
2023-01-25T23:03:46.072Z,3.42
2023-01-25T23:06:15.131Z,4.00
2023-01-25T23:08:41.858Z,4.15
2023-01-25T23:11:12.525Z,3.95
2023-01-25T23:13:39.289Z,4.18
2023-01-25T23:16:07.278Z,3.88
2023-01-25T23:18:33.995Z,3.67
2023-01-25T23:21:02.864Z,4.70
2023-01-25T23:23:29.483Z,4.40
2023-01-25T23:25:56.221Z,4.40
2023-01-25T23:28:22.773Z,4.32
2023-01-25T23:30:49.461Z,3.38
2023-01-25T23:33:16.080Z,4.00
2023-01-25T23:35:42.691Z,3.95
2023-01-25T23:38:09.265Z,3.97
2023-01-25T23:40:35.838Z,4.13
2023-01-25T23:43:02.432Z,4.65
2023-01-25T23:45:29.010Z,4.40
2023-01-25T23:47:55.660Z,3.42
2023-01-25T23:50:22.272Z,3.33
2023-01-25T23:52:49.008Z,4.50
2023-01-25T23:55:15.585Z,4.03
2023-01-25T23:57:42.238Z,4.30
